Time;durP1;ratioP1;P1;durP2;ratioP2;P2;SDS_P1;SDS_P2;PMS_P1;PMS_P2;Temp;Humidity;BMP_temperature;BMP_pressure;BME280_temperature;BME280_humidity;BME280_pressure;Samples;Min_cycle;Max_cycle;Signal;HPM_P1;HPM_P2
2022/12/17 13:07:26;;;;;;;15.68;8.40;;;;;;;;;;5144346;27;20079;-60
2022/12/17 13:09:53;;;;;;;16.70;8.30;;;;;;;;;;5144110;27;20038;-60
2022/12/17 13:12:26;;;;;;;15.30;7.97;;;;;;;;;;5142977;27;20071;-60
2022/12/17 13:14:52;;;;;;;17.35;8.55;;;;;;;;;;5146542;27;20043;-60
2022/12/17 13:17:18;;;;;;;17.70;9.30;;;;;;;;;;5147219;27;20042;-59
2022/12/17 13:19:46;;;;;;;16.48;8.52;;;;;;;;;;5147862;27;20601;-60
2022/12/17 13:22:15;;;;;;;19.75;9.38;;;;;;;;;;5145913;27;20047;-60
2022/12/17 13:24:45;;;;;;;18.10;8.85;;;;;;;;;;5148735;27;20039;-60
2022/12/17 13:27:30;;;;;;;16.75;8.65;;;;;;;;;;5145573;27;20095;-60
2022/12/17 13:29:57;;;;;;;13.93;7.85;;;;;;;;;;5147434;27;20084;-59
2022/12/17 13:32:32;;;;;;;18.80;9.10;;;;;;;;;;5148947;27;20039;-60
2022/12/17 13:35:01;;;;;;;14.88;8.95;;;;;;;;;;5147506;27;20046;-60
2022/12/17 13:37:36;;;;;;;13.18;7.63;;;;;;;;;;5148101;27;20079;-60
2022/12/17 13:40:11;;;;;;;18.30;9.02;;;;;;;;;;5137352;27;20042;-59
2022/12/17 13:42:38;;;;;;;15.68;8.73;;;;;;;;;;5144652;27;20035;-59
2022/12/17 13:45:04;;;;;;;17.65;10.13;;;;;;;;;;5141695;27;20500;-60
2022/12/17 13:47:32;;;;;;;13.52;7.85;;;;;;;;;;5143593;27;20489;-60
2022/12/17 13:49:59;;;;;;;15.68;7.97;;;;;;;;;;5142395;27;20037;-60
2022/12/17 13:52:27;;;;;;;14.02;7.97;;;;;;;;;;5141736;27;20046;-62
2022/12/17 13:54:54;;;;;;;15.10;7.05;;;;;;;;;;5145548;27;20043;-60
2022/12/17 13:57:25;;;;;;;14.60;7.82;;;;;;;;;;5140296;27;20614;-60
2022/12/17 13:59:55;;;;;;;14.32;8.52;;;;;;;;;;5129461;27;20071;-59
2022/12/17 14:02:25;;;;;;;14.63;9.48;;;;;;;;;;5138462;27;20440;-59
2022/12/17 14:04:52;;;;;;;15.85;8.82;;;;;;;;;;5140000;27;20125;-60
2022/12/17 14:07:18;;;;;;;15.20;8.23;;;;;;;;;;5142246;27;20055;-60
2022/12/17 14:09:44;;;;;;;14.93;8.13;;;;;;;;;;5138701;27;20039;-60
2022/12/17 14:12:21;;;;;;;13.60;7.88;;;;;;;;;;5141199;27;20061;-59
2022/12/17 14:14:58;;;;;;;22.10;9.07;;;;;;;;;;5144048;27;20130;-59
2022/12/17 14:17:25;;;;;;;16.50;9.07;;;;;;;;;;5142768;27;20031;-59
2022/12/17 14:20:04;;;;;;;18.27;8.45;;;;;;;;;;5135948;27;20114;-60
2022/12/17 14:22:30;;;;;;;13.07;7.68;;;;;;;;;;5140587;27;20549;-59
2022/12/17 14:24:56;;;;;;;17.38;8.43;;;;;;;;;;5143944;27;20046;-60
2022/12/17 14:27:30;;;;;;;14.05;7.05;;;;;;;;;;5142230;27;20054;-58
2022/12/17 14:29:56;;;;;;;14.05;7.40;;;;;;;;;;5143081;27;20043;-59
2022/12/17 14:32:24;;;;;;;13.38;7.57;;;;;;;;;;5143651;27;20055;-58
2022/12/17 14:34:50;;;;;;;14.45;7.13;;;;;;;;;;5139146;27;20049;-58
2022/12/17 14:37:18;;;;;;;12.07;7.88;;;;;;;;;;5142977;27;20046;-58
2022/12/17 14:39:46;;;;;;;17.90;8.52;;;;;;;;;;5139727;27;20047;-58
2022/12/17 14:42:28;;;;;;;15.25;8.80;;;;;;;;;;5119644;27;20058;-58
2022/12/17 14:44:54;;;;;;;15.43;8.07;;;;;;;;;;5135821;27;20033;-58
2022/12/17 14:47:25;;;;;;;16.40;8.10;;;;;;;;;;5136601;27;20826;-59
2022/12/17 14:49:53;;;;;;;14.88;8.13;;;;;;;;;;5138654;27;20562;-58
2022/12/17 14:52:38;;;;;;;19.67;8.98;;;;;;;;;;5135515;27;20082;-58
2022/12/17 14:55:23;;;;;;;15.77;9.15;;;;;;;;;;5141884;27;20049;-58
2022/12/17 14:57:50;;;;;;;21.73;8.20;;;;;;;;;;5132673;27;20280;-59
2022/12/17 15:00:17;;;;;;;15.70;8.48;;;;;;;;;;5141289;27;20536;-59
2022/12/17 15:02:44;;;;;;;14.07;7.53;;;;;;;;;;5143291;27;20043;-59
2022/12/17 15:05:14;;;;;;;19.80;10.23;;;;;;;;;;5143091;27;20050;-59
2022/12/17 15:07:40;;;;;;;19.27;9.55;;;;;;;;;;5141162;27;20417;-58
2022/12/17 15:10:11;;;;;;;16.52;8.95;;;;;;;;;;5141079;27;20047;-58
2022/12/17 15:12:37;;;;;;;18.92;9.25;;;;;;;;;;5144013;27;20068;-58
2022/12/17 15:15:03;;;;;;;15.35;9.25;;;;;;;;;;5145093;27;20048;-58
2022/12/17 15:17:29;;;;;;;18.98;8.98;;;;;;;;;;5137561;27;20039;-58
2022/12/17 15:19:55;;;;;;;14.38;8.68;;;;;;;;;;5140024;27;20031;-58
2022/12/17 15:22:21;;;;;;;14.40;8.18;;;;;;;;;;5145201;27;20161;-58
2022/12/17 15:24:48;;;;;;;19.48;8.85;;;;;;;;;;5146605;27;20073;-58
2022/12/17 15:27:15;;;;;;;17.48;9.40;;;;;;;;;;5144918;27;20231;-58
2022/12/17 15:29:41;;;;;;;18.45;10.95;;;;;;;;;;5141151;27;20073;-58
2022/12/17 15:32:07;;;;;;;21.27;10.02;;;;;;;;;;5144973;27;20035;-58
2022/12/17 15:34:33;;;;;;;23.08;11.40;;;;;;;;;;5144227;27;20059;-58
2022/12/17 15:36:59;;;;;;;14.25;8.10;;;;;;;;;;5145711;27;20046;-58
2022/12/17 15:39:25;;;;;;;21.02;9.38;;;;;;;;;;5143359;27;20046;-58
2022/12/17 15:44:36;;;;;;;17.50;9.00;;;;;;;;;;5141731;27;20039;-58
2022/12/17 15:47:02;;;;;;;20.73;9.15;;;;;;;;;;5141157;27;20154;-58
2022/12/17 15:49:29;;;;;;;18.45;9.30;;;;;;;;;;5139160;27;20039;-58
2022/12/17 15:51:55;;;;;;;19.05;9.75;;;;;;;;;;5133832;27;20517;-58
2022/12/17 15:54:21;;;;;;;18.20;9.60;;;;;;;;;;5142841;27;20178;-58
2022/12/17 15:56:52;;;;;;;18.70;9.45;;;;;;;;;;5140128;27;21243;-58
2022/12/17 15:59:18;;;;;;;18.07;8.87;;;;;;;;;;5139579;27;20043;-58
2022/12/17 16:01:44;;;;;;;22.17;10.55;;;;;;;;;;5142666;27;20039;-58
2022/12/17 16:04:10;;;;;;;19.30;9.10;;;;;;;;;;5131112;27;20133;-58
2022/12/17 16:06:36;;;;;;;21.98;9.85;;;;;;;;;;5143642;27;20054;-58
2022/12/17 16:09:02;;;;;;;19.88;8.90;;;;;;;;;;5138300;27;20042;-58
2022/12/17 16:11:28;;;;;;;24.20;11.70;;;;;;;;;;5137653;27;20047;-58
2022/12/17 16:13:55;;;;;;;18.33;8.98;;;;;;;;;;5141417;27;20094;-58
2022/12/17 16:16:22;;;;;;;22.30;9.27;;;;;;;;;;5156879;27;20490;-58
2022/12/17 16:18:48;;;;;;;24.90;9.90;;;;;;;;;;5144056;27;20360;-58
2022/12/17 16:21:14;;;;;;;22.73;10.93;;;;;;;;;;5137791;27;20043;-58
2022/12/17 16:23:41;;;;;;;19.67;10.85;;;;;;;;;;5142406;27;20139;-58
2022/12/17 16:26:08;;;;;;;21.77;11.45;;;;;;;;;;5143168;27;20075;-58
2022/12/17 16:28:34;;;;;;;22.98;11.18;;;;;;;;;;5143744;27;20050;-58
2022/12/17 16:31:01;;;;;;;25.90;11.85;;;;;;;;;;5142148;27;20042;-58
2022/12/17 16:33:31;;;;;;;32.83;11.82;;;;;;;;;;5136924;27;21178;-58
2022/12/17 16:35:57;;;;;;;20.13;13.18;;;;;;;;;;5159380;27;20038;-58
2022/12/17 16:38:23;;;;;;;25.52;11.77;;;;;;;;;;5140934;27;20042;-58
2022/12/17 16:40:53;;;;;;;29.55;13.77;;;;;;;;;;5140542;27;20119;-58
2022/12/17 16:43:19;;;;;;;25.77;11.85;;;;;;;;;;5142180;27;20038;-58
2022/12/17 16:45:49;;;;;;;21.83;10.75;;;;;;;;;;5142618;27;20197;-58
2022/12/17 16:48:18;;;;;;;33.00;14.10;;;;;;;;;;5128328;27;20130;-58
2022/12/17 16:50:44;;;;;;;27.33;11.65;;;;;;;;;;5147923;27;20291;-58
2022/12/17 16:53:10;;;;;;;18.48;11.32;;;;;;;;;;5146883;27;20039;-58
2022/12/17 16:55:40;;;;;;;25.73;12.10;;;;;;;;;;5146345;27;20300;-58
2022/12/17 16:58:06;;;;;;;23.65;12.48;;;;;;;;;;5146670;27;20651;-58
2022/12/17 17:00:33;;;;;;;25.23;10.38;;;;;;;;;;5144324;27;20616;-58
2022/12/17 17:02:59;;;;;;;25.67;11.10;;;;;;;;;;5147562;27;20074;-58
2022/12/17 17:05:25;;;;;;;35.38;17.77;;;;;;;;;;5146062;27;20046;-58
2022/12/17 17:07:51;;;;;;;34.10;18.23;;;;;;;;;;5145986;27;20084;-58
2022/12/17 17:10:18;;;;;;;31.92;14.68;;;;;;;;;;5144516;27;20035;-58
2022/12/17 17:12:44;;;;;;;33.80;14.95;;;;;;;;;;5141916;27;20369;-58
2022/12/17 17:15:10;;;;;;;33.75;16.15;;;;;;;;;;5145304;27;20878;-58
2022/12/17 17:17:36;;;;;;;29.77;15.55;;;;;;;;;;5146062;27;20043;-58
2022/12/17 17:20:02;;;;;;;37.75;16.48;;;;;;;;;;5143560;27;20041;-58
2022/12/17 17:22:28;;;;;;;34.85;14.73;;;;;;;;;;5148147;27;20039;-58
2022/12/17 17:24:55;;;;;;;34.00;14.50;;;;;;;;;;5146198;27;20053;-58
2022/12/17 17:27:21;;;;;;;25.77;12.95;;;;;;;;;;5146384;27;20035;-58
2022/12/17 17:29:47;;;;;;;26.90;13.10;;;;;;;;;;5140473;27;20591;-58
2022/12/17 17:32:13;;;;;;;25.02;13.00;;;;;;;;;;5140207;27;20043;-58
2022/12/17 17:34:39;;;;;;;28.45;14.35;;;;;;;;;;5141850;27;20039;-58
2022/12/17 17:37:06;;;;;;;30.25;14.13;;;;;;;;;;5138698;27;20047;-59
2022/12/17 17:39:33;;;;;;;28.05;13.77;;;;;;;;;;5137871;27;20572;-58
2022/12/17 17:41:59;;;;;;;27.23;12.55;;;;;;;;;;5138211;27;20120;-59
2022/12/17 17:44:25;;;;;;;26.23;12.85;;;;;;;;;;5137803;27;20350;-58
2022/12/17 17:46:51;;;;;;;28.85;14.52;;;;;;;;;;5143787;27;20049;-58
2022/12/17 17:49:17;;;;;;;28.33;15.07;;;;;;;;;;5145200;27;20039;-58
2022/12/17 17:51:44;;;;;;;24.08;13.75;;;;;;;;;;5145554;27;20070;-59
2022/12/17 17:54:10;;;;;;;30.90;17.92;;;;;;;;;;5145452;27;20126;-58
2022/12/17 17:56:37;;;;;;;31.38;16.40;;;;;;;;;;5144396;27;20087;-58
2022/12/17 17:59:07;;;;;;;30.00;16.92;;;;;;;;;;5143876;27;20054;-58
2022/12/17 18:01:35;;;;;;;26.20;13.75;;;;;;;;;;5143822;27;20043;-58
2022/12/17 18:04:02;;;;;;;34.35;16.90;;;;;;;;;;5142670;27;20034;-59
2022/12/17 18:06:28;;;;;;;34.63;15.75;;;;;;;;;;5145016;27;20062;-59
2022/12/17 18:08:55;;;;;;;39.97;17.48;;;;;;;;;;5145438;27;20101;-58
2022/12/17 18:11:22;;;;;;;37.60;17.75;;;;;;;;;;5144595;27;20070;-58
2022/12/17 18:13:55;;;;;;;46.03;21.23;;;;;;;;;;5143635;27;20047;-58
2022/12/17 18:16:31;;;;;;;40.60;17.75;;;;;;;;;;5142870;27;20126;-58
2022/12/17 18:18:59;;;;;;;38.08;17.45;;;;;;;;;;5144391;27;20114;-58
2022/12/17 18:21:26;;;;;;;37.33;15.23;;;;;;;;;;5145079;27;20174;-59
2022/12/17 18:23:55;;;;;;;30.35;13.18;;;;;;;;;;5142486;27;20042;-58
2022/12/17 18:26:23;;;;;;;28.08;13.65;;;;;;;;;;5143881;27;20034;-58
2022/12/17 18:28:49;;;;;;;27.10;14.80;;;;;;;;;;5140498;27;20039;-58
2022/12/17 18:31:16;;;;;;;25.35;13.65;;;;;;;;;;5142631;27;20187;-59
2022/12/17 18:33:44;;;;;;;29.48;15.50;;;;;;;;;;5143848;27;20042;-58
2022/12/17 18:36:11;;;;;;;27.02;13.10;;;;;;;;;;5145049;27;20043;-58
2022/12/17 18:38:38;;;;;;;27.42;13.00;;;;;;;;;;5145232;27;20047;-58
2022/12/17 18:43:21;;;;;;;32.58;15.55;;;;;;;;;;5142093;27;20510;-58
2022/12/17 18:43:51;;;;;;;25.17;15.25;;;;;;;;;;5139041;27;20951;-58
2022/12/17 18:46:17;;;;;;;32.67;14.43;;;;;;;;;;5142511;27;20047;-58
2022/12/17 18:48:43;;;;;;;29.75;14.55;;;;;;;;;;5137937;27;20046;-58
2022/12/17 18:51:09;;;;;;;29.88;13.77;;;;;;;;;;5142199;27;20835;-58
2022/12/17 18:53:35;;;;;;;29.90;13.48;;;;;;;;;;5154331;27;20054;-58
2022/12/17 18:56:11;;;;;;;24.75;12.82;;;;;;;;;;5141769;27;20039;-58
2022/12/17 18:58:37;;;;;;;27.33;12.82;;;;;;;;;;5141419;27;20035;-59
2022/12/17 19:01:04;;;;;;;24.60;14.52;;;;;;;;;;5157028;27;20753;-58
2022/12/17 19:03:30;;;;;;;27.25;13.35;;;;;;;;;;5141155;27;20039;-58
2022/12/17 19:05:56;;;;;;;23.35;11.52;;;;;;;;;;5143335;27;20047;-58
2022/12/17 19:08:23;;;;;;;22.10;10.63;;;;;;;;;;5142759;27;20450;-58
2022/12/17 19:10:49;;;;;;;32.78;14.45;;;;;;;;;;5140089;27;21179;-58
2022/12/17 19:13:15;;;;;;;29.38;13.23;;;;;;;;;;5137788;27;20035;-58
2022/12/17 19:15:41;;;;;;;27.75;13.45;;;;;;;;;;5139911;27;20043;-58
2022/12/17 19:18:07;;;;;;;24.67;12.50;;;;;;;;;;5135374;27;20104;-58
2022/12/17 19:20:33;;;;;;;28.80;13.45;;;;;;;;;;5136141;27;20045;-58
2022/12/17 19:22:59;;;;;;;35.47;14.38;;;;;;;;;;5139611;27;20074;-58
2022/12/17 19:25:25;;;;;;;27.70;12.73;;;;;;;;;;5141351;27;20050;-58
2022/12/17 19:27:51;;;;;;;31.13;14.80;;;;;;;;;;5140149;27;20566;-58
2022/12/17 19:30:17;;;;;;;28.85;14.63;;;;;;;;;;5141844;27;20047;-58
2022/12/17 19:32:43;;;;;;;28.55;14.07;;;;;;;;;;5139772;27;20727;-58
2022/12/17 19:35:09;;;;;;;29.73;14.52;;;;;;;;;;5141567;27;20856;-58
2022/12/17 19:37:35;;;;;;;32.95;14.73;;;;;;;;;;5134550;27;20039;-58
2022/12/17 19:40:01;;;;;;;33.05;16.73;;;;;;;;;;5136226;27;21352;-58
2022/12/17 19:42:28;;;;;;;34.95;17.50;;;;;;;;;;5144047;27;20553;-58
2022/12/17 19:44:54;;;;;;;39.55;16.92;;;;;;;;;;5139724;27;20035;-58
2022/12/17 19:47:23;;;;;;;36.75;15.52;;;;;;;;;;5142620;27;20334;-62
2022/12/17 19:49:49;;;;;;;37.20;16.90;;;;;;;;;;5142644;27;20047;-59
2022/12/17 19:52:16;;;;;;;35.50;17.10;;;;;;;;;;5141772;27;20092;-58
2022/12/17 19:54:42;;;;;;;36.33;15.70;;;;;;;;;;5139933;27;20038;-58
2022/12/17 19:57:08;;;;;;;41.00;17.50;;;;;;;;;;5139107;27;20035;-59
2022/12/17 19:59:34;;;;;;;33.97;18.17;;;;;;;;;;5144411;27;20957;-59
2022/12/17 20:02:02;;;;;;;41.80;18.33;;;;;;;;;;5143764;27;20570;-59
2022/12/17 20:04:29;;;;;;;41.90;18.13;;;;;;;;;;5138249;27;20065;-59
2022/12/17 20:06:55;;;;;;;30.77;15.60;;;;;;;;;;5140884;27;20088;-59
2022/12/17 20:09:21;;;;;;;49.22;20.45;;;;;;;;;;5139981;27;20051;-58
2022/12/17 20:11:47;;;;;;;39.40;18.90;;;;;;;;;;5137955;27;20039;-59
2022/12/17 20:14:14;;;;;;;32.63;18.08;;;;;;;;;;5139445;27;20050;-58
2022/12/17 20:16:45;;;;;;;42.63;20.10;;;;;;;;;;5139087;27;20058;-58
2022/12/17 20:19:12;;;;;;;30.05;15.88;;;;;;;;;;5141904;27;20099;-58
2022/12/17 20:21:39;;;;;;;39.38;19.95;;;;;;;;;;5141515;27;20045;-60
2022/12/17 20:24:05;;;;;;;43.60;17.83;;;;;;;;;;5140101;27;20752;-58
2022/12/17 20:26:31;;;;;;;55.25;25.88;;;;;;;;;;5140321;27;20097;-58
2022/12/17 20:28:58;;;;;;;48.50;24.83;;;;;;;;;;5143606;27;21112;-58
2022/12/17 20:31:25;;;;;;;44.58;20.02;;;;;;;;;;5143963;27;20035;-59
2022/12/17 20:33:51;;;;;;;42.85;18.52;;;;;;;;;;5143496;27;20037;-59
2022/12/17 20:36:18;;;;;;;38.20;18.88;;;;;;;;;;5144907;27;20031;-59
2022/12/17 20:38:44;;;;;;;46.63;17.70;;;;;;;;;;5143015;27;20187;-59
2022/12/17 20:41:11;;;;;;;38.45;18.95;;;;;;;;;;5141513;27;20054;-60
2022/12/17 20:43:37;;;;;;;34.05;17.20;;;;;;;;;;5140510;27;20062;-59
2022/12/17 20:46:04;;;;;;;36.55;18.85;;;;;;;;;;5142930;27;20889;-58
2022/12/17 20:48:30;;;;;;;42.88;19.05;;;;;;;;;;5142959;27;20207;-64
2022/12/17 20:50:56;;;;;;;40.13;16.75;;;;;;;;;;5145876;27;20090;-61
2022/12/17 20:53:22;;;;;;;38.55;17.42;;;;;;;;;;5145103;27;20042;-59
2022/12/17 20:55:58;;;;;;;39.65;17.55;;;;;;;;;;5140653;27;20047;-58
2022/12/17 20:58:24;;;;;;;34.97;16.65;;;;;;;;;;5139072;27;20548;-58
2022/12/17 21:00:51;;;;;;;32.15;15.93;;;;;;;;;;5138325;27;20038;-59
2022/12/17 21:03:17;;;;;;;30.83;14.45;;;;;;;;;;5141758;27;20574;-59
2022/12/17 21:05:43;;;;;;;40.33;15.65;;;;;;;;;;5137362;27;20510;-58
2022/12/17 21:08:09;;;;;;;27.63;14.52;;;;;;;;;;5139855;27;20038;-59
2022/12/17 21:10:35;;;;;;;40.55;20.40;;;;;;;;;;5138240;27;20047;-59
2022/12/17 21:15:50;;;;;;;31.73;12.82;;;;;;;;;;5134296;27;20595;-58
2022/12/17 21:18:16;;;;;;;32.53;15.63;;;;;;;;;;5139867;27;20047;-58
2022/12/17 21:20:42;;;;;;;33.83;14.50;;;;;;;;;;5138905;27;20034;-58
2022/12/17 21:23:08;;;;;;;24.92;13.60;;;;;;;;;;5139848;27;20046;-58
2022/12/17 21:25:34;;;;;;;35.67;14.60;;;;;;;;;;5144470;27;20196;-58
2022/12/17 21:28:00;;;;;;;29.95;15.40;;;;;;;;;;5137125;27;20047;-58
2022/12/17 21:30:26;;;;;;;26.10;13.55;;;;;;;;;;5154249;27;20305;-58
2022/12/17 21:32:54;;;;;;;27.38;12.95;;;;;;;;;;5139962;27;20039;-59
2022/12/17 21:35:20;;;;;;;33.88;15.23;;;;;;;;;;5138782;27;20080;-58
2022/12/17 21:37:46;;;;;;;29.90;13.05;;;;;;;;;;5144357;27;20045;-58
2022/12/17 21:40:12;;;;;;;32.63;14.15;;;;;;;;;;5140938;27;20070;-59
2022/12/17 21:45:23;;;;;;;24.60;12.45;;;;;;;;;;5143456;27;20055;-59
2022/12/17 21:47:49;;;;;;;29.05;10.32;;;;;;;;;;5138320;27;20038;-59
2022/12/17 21:50:15;;;;;;;24.63;11.32;;;;;;;;;;5142275;27;20070;-58
2022/12/17 21:52:41;;;;;;;30.35;13.23;;;;;;;;;;5135486;27;20035;-58
2022/12/17 21:55:08;;;;;;;28.58;11.30;;;;;;;;;;5132883;27;20101;-58
2022/12/17 21:57:34;;;;;;;31.17;12.68;;;;;;;;;;5137134;27;20043;-58
2022/12/17 22:00:00;;;;;;;30.75;10.32;;;;;;;;;;5141062;27;20042;-58
2022/12/17 22:02:26;;;;;;;28.10;14.20;;;;;;;;;;5141443;27;20035;-58
2022/12/17 22:04:52;;;;;;;27.75;11.85;;;;;;;;;;5146852;27;20576;-58
2022/12/17 22:07:18;;;;;;;26.15;12.50;;;;;;;;;;5145224;27;20060;-58
2022/12/17 22:09:44;;;;;;;25.20;11.32;;;;;;;;;;5144874;27;20070;-58
2022/12/17 22:14:55;;;;;;;22.98;10.02;;;;;;;;;;5146542;27;20039;-57
2022/12/17 22:17:21;;;;;;;21.15;10.88;;;;;;;;;;5144489;27;20039;-58
2022/12/17 22:19:47;;;;;;;23.75;11.38;;;;;;;;;;5144009;27;20046;-58
2022/12/17 22:22:13;;;;;;;20.95;9.30;;;;;;;;;;5144622;27;20624;-57
2022/12/17 22:24:40;;;;;;;23.05;10.77;;;;;;;;;;5144810;27;20096;-58
2022/12/17 22:27:06;;;;;;;19.27;9.00;;;;;;;;;;5147111;27;20072;-58
2022/12/17 22:35:01;;;;;;;26.23;10.10;;;;;;;;;;5145533;27;20043;-58
2022/12/17 22:37:27;;;;;;;28.70;10.68;;;;;;;;;;5137916;27;20493;-58
2022/12/17 22:39:53;;;;;;;27.25;10.85;;;;;;;;;;5125700;27;20524;-58
2022/12/17 22:45:07;;;;;;;25.58;9.77;;;;;;;;;;5146457;27;20043;-58
2022/12/17 22:47:34;;;;;;;24.95;10.73;;;;;;;;;;5141218;27;20126;-58
2022/12/17 22:50:00;;;;;;;23.38;10.30;;;;;;;;;;5144019;27;20035;-58
2022/12/17 22:52:26;;;;;;;27.45;12.48;;;;;;;;;;5143190;27;20039;-58
2022/12/17 22:54:52;;;;;;;24.95;9.13;;;;;;;;;;5142729;27;20670;-58
2022/12/17 22:57:18;;;;;;;28.15;11.75;;;;;;;;;;5141113;27;20054;-58
2022/12/17 22:59:44;;;;;;;26.00;12.05;;;;;;;;;;5142254;27;20043;-58
2022/12/17 23:02:11;;;;;;;23.02;10.50;;;;;;;;;;5143315;27;20545;-58
2022/12/17 23:04:37;;;;;;;26.00;11.25;;;;;;;;;;5143392;27;20469;-58
2022/12/17 23:07:03;;;;;;;24.63;11.32;;;;;;;;;;5144178;27;20443;-57
2022/12/17 23:09:29;;;;;;;26.90;11.45;;;;;;;;;;5144929;27;20102;-58
2022/12/17 23:11:55;;;;;;;22.77;9.38;;;;;;;;;;5141243;27;20047;-58
2022/12/17 23:14:21;;;;;;;23.70;9.00;;;;;;;;;;5144482;27;20042;-58
2022/12/17 23:16:47;;;;;;;27.48;11.18;;;;;;;;;;5143237;27;20043;-58
2022/12/17 23:19:13;;;;;;;22.23;9.80;;;;;;;;;;5144346;27;20882;-58
2022/12/17 23:21:40;;;;;;;23.45;12.02;;;;;;;;;;5143961;27;20049;-58
2022/12/17 23:24:06;;;;;;;25.45;10.07;;;;;;;;;;5143101;27;20047;-58
2022/12/17 23:26:34;;;;;;;27.65;11.05;;;;;;;;;;5139213;27;20046;-58
2022/12/17 23:29:01;;;;;;;22.55;9.00;;;;;;;;;;5135586;27;20042;-58
2022/12/17 23:31:28;;;;;;;23.98;11.43;;;;;;;;;;5142976;27;20456;-58
2022/12/17 23:33:54;;;;;;;23.48;10.13;;;;;;;;;;5144814;27;20043;-57
2022/12/17 23:36:22;;;;;;;21.65;9.93;;;;;;;;;;5144140;27;20038;-57
2022/12/17 23:38:48;;;;;;;18.83;8.82;;;;;;;;;;5143778;27;20039;-57
2022/12/17 23:41:22;;;;;;;24.25;9.45;;;;;;;;;;5140410;27;20047;-57
2022/12/17 23:43:48;;;;;;;23.73;8.82;;;;;;;;;;5143652;27;20143;-57
2022/12/17 23:46:15;;;;;;;26.65;10.57;;;;;;;;;;5143037;27;20051;-57
2022/12/17 23:48:42;;;;;;;25.92;10.73;;;;;;;;;;5140765;27;20030;-57
2022/12/17 23:51:09;;;;;;;23.40;10.15;;;;;;;;;;5144769;27;20043;-58
2022/12/17 23:53:36;;;;;;;26.17;11.63;;;;;;;;;;5142600;27;20042;-57
2022/12/17 23:56:17;;;;;;;28.25;11.93;;;;;;;;;;5138481;27;20098;-57
2022/12/17 23:58:44;;;;;;;24.45;9.40;;;;;;;;;;5141362;27;20562;-58
